Time;durP1;ratioP1;P1;durP2;ratioP2;P2;SDS_P1;SDS_P2;PMS_P1;PMS_P2;Temp;Humidity;BMP_temperature;BMP_pressure;BME280_temperature;BME280_humidity;BME280_pressure;Samples;Min_cycle;Max_cycle;Signal;HPM_P1;HPM_P2
2022/03/21 00:02:23;;;;;;;145.95;69.55;;;;;;;4.75;100.00;100094.00;4993551;28;20144;-84
2022/03/21 00:04:48;;;;;;;138.73;67.15;;;;;;;4.83;100.00;100104.56;4976636;28;20118;-86
2022/03/21 00:07:14;;;;;;;142.02;67.47;;;;;;;4.70;100.00;100074.38;4990297;28;20053;-86
2022/03/21 00:09:40;;;;;;;127.75;62.33;;;;;;;4.55;100.00;100068.72;4993218;28;20034;-85
2022/03/21 00:12:07;;;;;;;132.10;62.75;;;;;;;4.73;100.00;100109.72;4977817;28;20034;-84
2022/03/21 00:14:33;;;;;;;120.72;62.58;;;;;;;4.65;100.00;100107.75;4992985;28;20045;-85
2022/03/21 00:16:59;;;;;;;135.75;64.90;;;;;;;4.62;100.00;100091.59;4977323;28;20026;-85
2022/03/21 00:19:26;;;;;;;138.98;67.28;;;;;;;4.72;100.00;100103.72;4977396;28;20050;-85
2022/03/21 00:21:52;;;;;;;142.88;64.75;;;;;;;4.66;100.00;100082.59;4976561;28;20503;-83
2022/03/21 00:24:18;;;;;;;144.50;68.03;;;;;;;4.76;100.00;100093.84;4993175;28;20030;-83
2022/03/21 00:26:43;;;;;;;139.20;64.53;;;;;;;4.74;100.00;100092.34;4993647;28;20033;-84
2022/03/21 00:29:09;;;;;;;141.40;66.00;;;;;;;4.72;100.00;100097.69;4993425;28;20034;-84
2022/03/21 00:31:36;;;;;;;136.70;66.07;;;;;;;4.63;100.00;100093.25;4990841;28;20034;-82
2022/03/21 00:34:02;;;;;;;141.15;67.50;;;;;;;4.53;100.00;100082.81;4988975;28;20046;-84
2022/03/21 00:36:28;;;;;;;150.52;67.40;;;;;;;4.53;100.00;100082.81;4976643;28;20404;-83
2022/03/21 00:38:54;;;;;;;151.57;67.88;;;;;;;4.65;100.00;100084.38;4984308;28;20118;-83
2022/03/21 00:41:21;;;;;;;146.10;65.85;;;;;;;4.64;100.00;100084.50;5008437;28;20031;-83
2022/03/21 00:43:47;;;;;;;143.25;65.70;;;;;;;4.67;100.00;100081.66;4995822;28;20040;-83
2022/03/21 00:46:14;;;;;;;128.68;65.07;;;;;;;4.68;100.00;100073.69;4994805;28;20034;-84
2022/03/21 00:48:39;;;;;;;144.93;67.75;;;;;;;4.72;100.00;100076.88;4996164;28;20085;-84
2022/03/21 00:51:05;;;;;;;135.23;68.20;;;;;;;4.75;100.00;100075.78;4997292;28;20488;-83
2022/03/21 00:53:30;;;;;;;139.80;65.53;;;;;;;4.76;100.00;100072.25;4996452;28;20042;-84
2022/03/21 00:55:56;;;;;;;138.95;64.20;;;;;;;4.70;100.00;100071.78;4979528;28;20041;-84
2022/03/21 00:58:22;;;;;;;140.95;66.55;;;;;;;4.63;100.00;100062.88;4995985;28;20027;-83
2022/03/21 01:00:47;;;;;;;124.80;63.08;;;;;;;4.67;100.00;100085.06;4996177;28;20046;-84
2022/03/21 01:03:13;;;;;;;123.15;59.67;;;;;;;4.36;100.00;100051.25;4980664;28;20493;-84
2022/03/21 01:05:39;;;;;;;118.43;58.50;;;;;;;4.46;100.00;100086.88;4995475;28;20042;-84
2022/03/21 01:08:05;;;;;;;122.45;59.20;;;;;;;4.32;100.00;100072.44;4997804;28;20054;-83
2022/03/21 01:10:32;;;;;;;111.70;56.95;;;;;;;4.29;100.00;100084.72;4997221;28;20034;-84
2022/03/21 01:12:58;;;;;;;118.43;60.10;;;;;;;4.18;100.00;100076.19;4980752;28;20480;-84
2022/03/21 01:15:26;;;;;;;139.90;65.22;;;;;;;4.10;100.00;100069.03;4980007;28;20029;-84
2022/03/21 01:17:52;;;;;;;152.57;69.68;;;;;;;4.17;100.00;100092.72;4997045;28;20027;-84
2022/03/21 01:20:19;;;;;;;153.52;73.75;;;;;;;4.16;100.00;100089.28;5001507;28;20125;-84
2022/03/21 01:22:45;;;;;;;147.95;69.70;;;;;;;4.17;100.00;100087.53;4998485;28;20030;-84
2022/03/21 01:25:11;;;;;;;152.73;70.68;;;;;;;4.12;100.00;100080.09;4999825;28;20038;-84
2022/03/21 01:27:38;;;;;;;161.55;71.78;;;;;;;4.15;100.00;100069.44;4999013;28;20049;-83
2022/03/21 01:30:11;;;;;;;145.02;68.43;;;;;;;4.25;100.00;100072.13;4994223;28;20496;-83
2022/03/21 01:32:37;;;;;;;141.05;67.07;;;;;;;4.30;100.00;100082.94;4977848;28;20464;-83
2022/03/21 01:35:04;;;;;;;140.50;67.70;;;;;;;4.26;100.00;100081.56;4997994;28;20056;-85
2022/03/21 01:37:31;;;;;;;139.13;64.88;;;;;;;4.24;100.00;100078.25;4997129;28;20101;-84
2022/03/21 01:39:56;;;;;;;138.77;63.97;;;;;;;4.16;100.00;100054.69;5005226;28;20037;-84
2022/03/21 01:42:24;;;;;;;137.85;65.70;;;;;;;4.30;100.00;100085.53;4988674;28;20081;-84
2022/03/21 01:44:52;;;;;;;140.48;65.57;;;;;;;4.40;100.00;100089.03;4976444;28;20433;-84
2022/03/21 01:47:17;;;;;;;136.15;62.90;;;;;;;4.33;100.00;100077.50;4994637;28;20489;-82
2022/03/21 01:49:45;;;;;;;130.13;61.58;;;;;;;4.03;100.00;100039.28;4996357;28;20421;-83
2022/03/21 01:52:11;;;;;;;129.35;62.75;;;;;;;4.30;100.00;100069.94;4979349;28;20117;-83
2022/03/21 01:57:23;;;;;;;126.93;60.83;;;;;;;4.12;100.00;100054.94;4996349;28;20056;-82
2022/03/21 01:59:50;;;;;;;127.10;60.50;;;;;;;4.29;100.00;100061.34;4997147;28;20034;-83
2022/03/21 02:02:16;;;;;;;130.05;61.33;;;;;;;4.35;100.00;100065.22;4979156;28;20034;-83
2022/03/21 02:04:44;;;;;;;133.07;62.47;;;;;;;4.21;100.00;100050.75;4997551;28;20030;-83
2022/03/21 02:07:10;;;;;;;118.45;59.83;;;;;;;4.49;100.00;100087.44;4981266;28;20113;-83
2022/03/21 02:09:36;;;;;;;131.85;59.40;;;;;;;4.41;100.00;100066.44;4994395;28;20034;-83
2022/03/21 02:12:03;;;;;;;124.10;60.33;;;;;;;4.63;100.00;100083.66;4978505;28;20384;-82
2022/03/21 02:14:29;;;;;;;130.00;62.10;;;;;;;4.53;100.00;100062.81;4993586;28;20124;-84
2022/03/21 02:16:55;;;;;;;119.72;56.75;;;;;;;4.37;100.00;100063.31;4981285;28;20444;-83
2022/03/21 02:19:30;;;;;;;108.40;54.53;;;;;;;4.30;100.00;100069.94;5003875;28;20049;-83
2022/03/21 02:22:33;;;;;;;105.43;53.50;;;;;;;4.24;100.00;100086.06;4995202;28;20030;-84
2022/03/21 02:25:17;;;;;;;107.38;54.15;;;;;;;4.08;100.00;100082.13;4950555;28;20476;-84
2022/03/21 02:27:45;;;;;;;110.50;53.15;;;;;;;3.83;100.00;100068.56;4992512;28;20053;-83
2022/03/21 02:30:11;;;;;;;110.10;54.17;;;;;;;3.82;100.00;100089.44;5003823;28;20022;-82
2022/03/21 02:32:38;;;;;;;117.63;54.58;;;;;;;3.67;100.00;100081.13;4994567;28;20084;-82
2022/03/21 02:35:04;;;;;;;113.45;57.00;;;;;;;3.62;100.00;100075.50;4994130;28;20041;-81
2022/03/21 02:37:31;;;;;;;106.15;54.78;;;;;;;3.49;100.00;100063.47;4975736;28;20066;-83
2022/03/21 02:39:59;;;;;;;106.25;55.58;;;;;;;3.50;100.00;100077.31;4993652;28;20033;-83
2022/03/21 02:42:25;;;;;;;150.88;65.07;;;;;;;3.46;100.00;100074.13;5002602;28;20038;-82
2022/03/21 02:44:51;;;;;;;130.73;63.22;;;;;;;3.58;100.00;100067.13;4976949;28;20084;-82
2022/03/21 02:47:16;;;;;;;138.88;64.95;;;;;;;3.59;100.00;100055.78;4977746;28;20033;-83
2022/03/21 02:49:42;;;;;;;140.88;62.38;;;;;;;3.76;100.00;100080.41;4995266;28;20029;-83
2022/03/21 02:52:10;;;;;;;130.45;61.90;;;;;;;3.93;100.00;100089.41;4978857;28;20034;-83
2022/03/21 02:54:35;;;;;;;133.93;62.53;;;;;;;3.92;100.00;100099.91;5008457;28;20034;-83
2022/03/21 02:57:01;;;;;;;121.10;58.90;;;;;;;3.80;100.00;100076.59;5006170;28;20029;-82
2022/03/21 02:59:28;;;;;;;125.97;60.15;;;;;;;3.62;100.00;100052.94;4978513;28;20046;-85
2022/03/21 03:01:56;;;;;;;119.60;58.67;;;;;;;3.62;100.00;100080.69;4993783;28;20054;-84
2022/03/21 03:04:26;;;;;;;117.35;56.70;;;;;;;3.59;100.00;100083.53;4994556;28;20038;-85
2022/03/21 03:06:53;;;;;;;115.47;57.30;;;;;;;3.40;100.00;100064.25;4977143;28;20058;-85
2022/03/21 03:09:20;;;;;;;117.28;56.80;;;;;;;3.49;100.00;100086.84;4996820;28;20141;-84
2022/03/21 03:11:48;;;;;;;127.47;59.20;;;;;;;3.46;100.00;100094.06;4970675;28;20113;-84
2022/03/21 03:14:15;;;;;;;122.53;59.30;;;;;;;3.31;100.00;100085.72;4990538;28;20125;-84
2022/03/21 03:16:42;;;;;;;125.50;61.17;;;;;;;3.32;100.00;100082.16;4979905;28;20053;-84
2022/03/21 03:19:08;;;;;;;132.38;62.50;;;;;;;3.39;100.00;100093.72;4992335;28;20050;-83
2022/03/21 03:21:36;;;;;;;122.53;59.70;;;;;;;3.33;100.00;100092.44;4976273;28;20104;-83
2022/03/21 03:24:02;;;;;;;128.65;62.67;;;;;;;3.32;100.00;100079.56;4992396;28;20096;-82
2022/03/21 03:26:28;;;;;;;137.43;65.97;;;;;;;3.45;100.00;100093.25;4968719;28;20476;-82
2022/03/21 03:28:54;;;;;;;145.68;67.32;;;;;;;3.46;100.00;100086.28;4993223;28;20030;-82
2022/03/21 03:31:20;;;;;;;146.98;67.95;;;;;;;3.53;100.00;100095.22;4992095;28;20037;-83
2022/03/21 03:33:47;;;;;;;146.68;67.90;;;;;;;3.57;100.00;100084.47;4991617;28;20117;-82
2022/03/21 03:36:15;;;;;;;153.57;71.07;;;;;;;3.55;100.00;100078.59;4992926;28;20081;-84
2022/03/21 03:38:41;;;;;;;160.93;70.30;;;;;;;3.63;100.00;100095.31;4975261;28;20038;-83
2022/03/21 03:41:08;;;;;;;160.40;71.55;;;;;;;3.61;100.00;100089.41;4973200;28;20034;-83
2022/03/21 03:43:34;;;;;;;150.90;66.22;;;;;;;3.63;100.00;100105.69;4993136;28;20131;-84
2022/03/21 03:46:00;;;;;;;146.13;68.70;;;;;;;3.50;100.00;100090.28;4975983;28;20058;-83
2022/03/21 03:48:26;;;;;;;137.13;64.63;;;;;;;3.43;100.00;100092.53;4977308;28;20030;-84
2022/03/21 03:51:07;;;;;;;157.07;71.72;;;;;;;3.26;100.00;100067.94;5126161;27;20368;-83
2022/03/21 03:53:33;;;;;;;156.68;69.38;;;;;;;3.45;100.00;100098.44;5101367;28;20047;-83
2022/03/21 03:55:59;;;;;;;161.20;72.10;;;;;;;3.49;100.00;100101.63;5122589;28;20019;-84
2022/03/21 03:58:25;;;;;;;149.32;68.53;;;;;;;3.31;100.00;100065.78;5105104;28;20031;-84
2022/03/21 04:00:51;;;;;;;158.75;71.00;;;;;;;3.24;100.00;100065.44;5118874;28;20103;-85
2022/03/21 04:06:02;;;;;;;138.23;64.88;;;;;;;3.31;100.00;100103.88;5124099;28;20370;-83
2022/03/21 04:08:29;;;;;;;142.23;65.20;;;;;;;3.18;100.00;100096.25;5119981;28;20370;-84
2022/03/21 04:10:54;;;;;;;141.82;65.90;;;;;;;3.08;100.00;100073.63;5119090;28;20030;-86
2022/03/21 04:13:20;;;;;;;154.82;68.72;;;;;;;3.20;100.00;100087.41;5101677;28;20404;-85
2022/03/21 04:15:46;;;;;;;151.65;68.70;;;;;;;3.38;100.00;100107.66;5118200;27;20035;-87
2022/03/21 04:18:12;;;;;;;160.15;70.03;;;;;;;3.21;100.00;100076.06;5122097;28;20028;-84
2022/03/21 04:20:39;;;;;;;160.90;69.53;;;;;;;3.38;100.00;100102.47;5119415;28;20093;-85
2022/03/21 04:23:05;;;;;;;134.27;62.65;;;;;;;3.37;100.00;100095.63;5122771;28;20492;-83
2022/03/21 04:25:31;;;;;;;138.90;63.60;;;;;;;3.33;100.00;100089.00;5119508;27;20043;-86
2022/03/21 04:27:57;;;;;;;124.32;58.30;;;;;;;3.40;100.00;100100.56;5124555;28;20434;-84
2022/03/21 04:30:23;;;;;;;129.98;61.70;;;;;;;3.37;100.00;100103.41;5129850;27;20055;-82
2022/03/21 04:32:49;;;;;;;140.68;63.45;;;;;;;3.33;100.00;100104.56;5118619;28;20046;-84
2022/03/21 04:35:15;;;;;;;124.55;57.58;;;;;;;3.25;100.00;100106.00;5120251;28;20031;-82
2022/03/21 04:37:41;;;;;;;121.75;57.75;;;;;;;3.10;100.00;100099.44;5121534;27;20032;-82
2022/03/21 04:40:09;;;;;;;113.65;55.75;;;;;;;3.15;100.00;100118.06;5115164;28;20020;-83
2022/03/21 04:42:36;;;;;;;131.60;59.28;;;;;;;2.98;100.00;100094.25;5124318;28;20084;-84
2022/03/21 04:45:03;;;;;;;129.50;60.63;;;;;;;3.10;100.00;100120.19;5115749;27;20035;-83
2022/03/21 04:47:29;;;;;;;134.68;61.20;;;;;;;3.07;100.00;100115.25;5101612;28;20028;-84
2022/03/21 04:49:55;;;;;;;129.52;63.33;;;;;;;3.05;100.00;100117.13;5119578;28;20130;-84
2022/03/21 04:52:21;;;;;;;126.40;61.70;;;;;;;2.98;100.00;100104.63;5117204;28;20524;-85
2022/03/21 04:54:48;;;;;;;130.23;62.15;;;;;;;3.02;100.00;100118.19;5119966;28;20505;-85
2022/03/21 04:57:14;;;;;;;138.07;61.17;;;;;;;2.95;100.00;100107.47;5101293;28;20028;-85
2022/03/21 04:59:40;;;;;;;138.45;61.15;;;;;;;2.97;100.00;100110.78;5100370;28;20030;-84
2022/03/21 05:02:06;;;;;;;134.30;61.58;;;;;;;2.93;100.00;100113.72;5087658;28;20133;-82
2022/03/21 05:04:34;;;;;;;126.78;60.72;;;;;;;2.93;100.00;100124.91;5105672;28;20028;-84
2022/03/21 05:07:00;;;;;;;135.90;61.35;;;;;;;2.84;100.00;100112.66;5103555;28;20024;-84
2022/03/21 05:09:26;;;;;;;142.00;63.42;;;;;;;2.86;100.00;100113.34;5107861;28;20080;-85
2022/03/21 05:11:52;;;;;;;137.60;66.93;;;;;;;2.76;100.00;100102.88;5111014;28;20036;-84
2022/03/21 05:14:19;;;;;;;145.98;63.35;;;;;;;2.63;100.00;100086.59;5106597;27;20027;-83
2022/03/21 05:16:48;;;;;;;133.38;62.10;;;;;;;2.69;100.00;100105.09;5082651;28;20028;-83
2022/03/21 05:19:14;;;;;;;136.85;63.38;;;;;;;2.50;100.00;100092.72;5101835;28;20073;-83
2022/03/21 05:21:40;;;;;;;126.97;61.40;;;;;;;2.57;100.00;100106.03;5098327;28;20028;-84
2022/03/21 05:32:24;;;;;;;137.40;63.65;;;;;;;2.62;100.00;100129.84;5097856;28;20105;-83
2022/03/21 05:37:34;;;;;;;139.30;62.10;;;;;;;2.53;100.00;100133.13;5101458;28;20091;-85
2022/03/21 05:43:03;;;;;;;135.93;62.13;;;;;;;2.44;100.00;100124.25;5101776;28;20047;-83
2022/03/21 05:45:29;;;;;;;136.15;64.03;;;;;;;2.53;100.00;100143.47;5084252;28;20036;-84
2022/03/21 05:50:39;;;;;;;141.15;63.53;;;;;;;2.51;100.00;100150.53;5100106;28;20498;-82
2022/03/21 05:53:09;;;;;;;147.88;65.82;;;;;;;2.53;100.00;100151.25;5106191;28;20062;-82
2022/03/21 05:55:35;;;;;;;145.23;66.25;;;;;;;2.55;100.00;100157.16;5101294;28;20393;-84
2022/03/21 05:58:01;;;;;;;154.07;68.85;;;;;;;2.56;100.00;100153.66;5104231;28;20521;-84
2022/03/21 06:00:27;;;;;;;143.32;65.65;;;;;;;2.62;100.00;100160.94;5103112;28;20028;-85
2022/03/21 06:02:53;;;;;;;142.82;65.10;;;;;;;2.42;100.00;100126.97;5084308;28;20100;-81
2022/03/21 06:05:21;;;;;;;143.27;64.60;;;;;;;2.56;100.00;100153.66;5084784;28;20034;-85
2022/03/21 06:07:49;;;;;;;163.25;69.60;;;;;;;2.50;100.00;100146.31;5101683;28;20043;-84
2022/03/21 06:10:16;;;;;;;144.27;66.05;;;;;;;2.43;100.00;100127.78;5105374;28;20031;-84
2022/03/21 06:12:42;;;;;;;149.43;64.32;;;;;;;2.41;100.00;100120.16;5099414;28;20038;-84
2022/03/21 06:15:09;;;;;;;152.55;68.63;;;;;;;2.73;100.00;100162.75;5097625;28;20039;-81
2022/03/21 06:17:42;;;;;;;146.52;69.10;;;;;;;2.67;100.00;100127.72;5102422;28;20110;-82
2022/03/21 06:20:13;;;;;;;160.65;71.45;;;;;;;2.90;100.00;100151.06;5092995;28;20034;-84
2022/03/21 06:22:39;;;;;;;159.90;72.00;;;;;;;2.87;100.00;100138.34;5101158;28;20089;-81
2022/03/21 06:25:07;;;;;;;161.80;70.07;;;;;;;2.91;100.00;100147.53;5098697;28;20043;-84
2022/03/21 06:27:34;;;;;;;154.88;65.10;;;;;;;2.79;100.00;100125.16;5083772;28;20111;-80
2022/03/21 06:30:02;;;;;;;151.15;67.57;;;;;;;3.00;100.00;100146.00;5107714;28;20032;-82
2022/03/21 06:32:27;;;;;;;150.30;66.35;;;;;;;2.88;100.00;100129.63;5084069;28;20120;-81
2022/03/21 06:34:53;;;;;;;141.40;65.07;;;;;;;3.03;100.00;100137.19;5085304;28;20096;-80
2022/03/21 06:37:20;;;;;;;149.23;68.70;;;;;;;3.21;100.00;100158.25;5104608;28;20053;-80
2022/03/21 06:39:46;;;;;;;147.85;68.18;;;;;;;3.24;100.00;100153.66;5101946;28;20028;-80
2022/03/21 06:42:14;;;;;;;150.50;67.85;;;;;;;3.31;100.00;100156.63;5101262;28;20451;-86
2022/03/21 06:44:41;;;;;;;152.63;70.88;;;;;;;3.18;100.00;100123.03;5085932;28;20539;-81
2022/03/21 06:47:08;;;;;;;148.15;67.55;;;;;;;3.36;100.00;100151.06;5105844;28;20023;-81
2022/03/21 06:49:35;;;;;;;145.57;67.20;;;;;;;3.51;100.00;100160.22;5098950;28;20077;-80
2022/03/21 06:52:08;;;;;;;163.30;72.95;;;;;;;3.48;100.00;100147.50;5095932;28;20489;-80
2022/03/21 06:54:35;;;;;;;155.03;71.63;;;;;;;3.65;100.00;100166.13;5100744;28;20039;-80
2022/03/21 06:57:01;;;;;;;152.40;68.72;;;;;;;3.65;100.00;100156.56;5100208;28;20035;-79
2022/03/21 06:59:29;;;;;;;146.45;67.15;;;;;;;3.79;100.00;100158.06;5099555;28;20451;-80
2022/03/21 07:01:56;;;;;;;153.77;70.97;;;;;;;3.88;100.00;100160.84;5101176;28;20040;-79
2022/03/21 07:04:23;;;;;;;139.82;67.25;;;;;;;3.89;100.00;100152.13;5098003;28;20032;-78
2022/03/21 07:06:48;;;;;;;155.48;70.65;;;;;;;4.04;100.00;100166.47;5103500;28;20031;-79
2022/03/21 07:09:14;;;;;;;141.90;66.15;;;;;;;4.10;100.00;100165.16;5104390;28;20032;-78
2022/03/21 07:11:39;;;;;;;147.73;69.35;;;;;;;4.21;100.00;100164.28;5092751;28;20060;-80
2022/03/21 07:14:05;;;;;;;159.77;71.85;;;;;;;4.32;100.00;100174.59;5096259;28;20088;-79
2022/03/21 07:16:31;;;;;;;152.25;70.18;;;;;;;4.32;100.00;100155.59;5075755;28;20020;-79
2022/03/21 07:18:56;;;;;;;148.70;72.70;;;;;;;4.51;100.00;100167.91;5082173;28;20028;-79
2022/03/21 07:21:22;;;;;;;145.52;71.80;;;;;;;4.47;100.00;100153.50;5082020;28;20034;-81
2022/03/21 07:23:48;;;;;;;159.20;75.57;;;;;;;4.61;100.00;100168.78;5100373;28;20024;-81
2022/03/21 07:26:14;;;;;;;149.48;72.25;;;;;;;4.68;100.00;100179.53;5100100;28;20068;-80
2022/03/21 07:28:39;;;;;;;150.27;70.10;;;;;;;4.81;100.00;100179.31;5103242;28;20055;-81
2022/03/21 07:31:09;;;;;;;163.15;72.82;;;;;;;4.92;100.00;100189.66;5101691;28;20374;-80
2022/03/21 07:33:37;;;;;;;146.80;69.18;;;;;;;5.03;100.00;100187.91;5099838;28;20100;-80
2022/03/21 07:36:03;;;;;;;146.25;67.10;;;;;;;5.04;100.00;100176.53;5105144;28;20370;-81
2022/03/21 07:38:29;;;;;;;140.93;67.00;;;;;;;5.19;100.00;100185.66;5100934;28;20111;-81
2022/03/21 07:40:55;;;;;;;147.32;68.72;;;;;;;5.29;100.00;100183.91;5099513;28;20027;-81
2022/03/21 07:43:22;;;;;;;142.63;69.97;;;;;;;5.33;100.00;100188.88;5099149;28;20039;-80
2022/03/21 07:48:33;;;;;;;134.55;65.50;;;;;;;5.63;100.00;100179.34;5098909;28;20438;-81
2022/03/21 07:50:59;;;;;;;134.65;66.03;;;;;;;5.76;100.00;100192.94;5094242;28;20123;-81
2022/03/21 07:53:24;;;;;;;139.23;66.13;;;;;;;5.92;100.00;100196.81;5098651;28;20080;-82
2022/03/21 07:55:50;;;;;;;138.00;69.20;;;;;;;5.96;100.00;100185.16;5099810;28;20081;-81
2022/03/21 07:58:15;;;;;;;156.00;75.32;;;;;;;6.09;100.00;100200.56;5103488;28;20073;-80
2022/03/21 08:00:41;;;;;;;162.48;81.03;;;;;;;6.07;100.00;100194.66;5097087;28;20070;-80
2022/03/21 08:03:11;;;;;;;157.05;74.95;;;;;;;6.05;100.00;100197.38;5095965;28;20043;-80
2022/03/21 08:05:37;;;;;;;147.55;72.82;;;;;;;6.15;100.00;100205.22;5097905;28;20035;-80
2022/03/21 08:08:04;;;;;;;143.95;71.18;;;;;;;6.14;100.00;100209.63;5098519;28;20032;-80
2022/03/21 08:10:33;;;;;;;139.57;71.03;;;;;;;6.18;100.00;100210.16;5097117;28;20439;-81
2022/03/21 08:12:58;;;;;;;134.48;66.43;;;;;;;6.24;100.00;100198.34;5099253;28;20119;-79
2022/03/21 08:15:26;;;;;;;136.68;70.70;;;;;;;6.37;100.00;100209.34;5098113;28;20389;-80
2022/03/21 08:17:56;;;;;;;121.20;63.75;;;;;;;6.48;100.00;100210.97;5098658;28;20052;-80
2022/03/21 08:20:22;;;;;;;126.30;63.63;;;;;;;6.64;100.00;100223.44;5099938;28;20031;-81
2022/03/21 08:22:49;;;;;;;113.50;62.08;;;;;;;6.79;100.00;100223.88;5103744;28;20036;-80
2022/03/21 08:25:16;;;;;;;129.18;64.93;;;;;;;6.85;100.00;100217.22;5093432;28;20040;-81
2022/03/21 08:27:43;;;;;;;130.20;66.85;;;;;;;6.94;100.00;100212.94;5102220;28;20556;-80
2022/03/21 08:30:15;;;;;;;112.53;59.30;;;;;;;7.09;100.00;100218.56;5083693;28;20031;-79
2022/03/21 08:32:43;;;;;;;106.70;57.30;;;;;;;7.20;100.00;100215.75;5098370;28;20036;-79
2022/03/21 08:35:09;;;;;;;112.38;58.63;;;;;;;7.24;100.00;100211.88;5099410;28;20028;-80
2022/03/21 08:37:39;;;;;;;104.53;55.05;;;;;;;7.41;100.00;100206.88;5106772;28;20027;-80
2022/03/21 08:40:07;;;;;;;95.03;53.22;;;;;;;7.54;100.00;100222.22;5097135;28;20106;-79
2022/03/21 08:42:33;;;;;;;103.75;52.90;;;;;;;7.63;100.00;100221.34;5101892;28;20028;-79
2022/03/21 08:44:58;;;;;;;100.30;54.00;;;;;;;7.60;100.00;100207.75;5104876;28;20032;-80
2022/03/21 08:47:25;;;;;;;93.22;53.65;;;;;;;7.77;100.00;100221.84;5099948;28;20394;-81
2022/03/21 08:49:51;;;;;;;93.60;53.50;;;;;;;7.81;100.00;100224.00;5104318;28;20036;-79
2022/03/21 08:52:17;;;;;;;104.22;55.83;;;;;;;7.89;100.00;100225.88;5099141;28;20027;-79
2022/03/21 08:54:43;;;;;;;93.25;51.53;;;;;;;7.92;100.00;100212.50;5102970;28;20032;-79
2022/03/21 08:57:10;;;;;;;92.75;49.85;;;;;;;8.03;100.00;100218.50;5111514;28;20024;-79
2022/03/21 08:59:36;;;;;;;94.50;49.45;;;;;;;8.11;100.00;100218.56;5100530;28;20114;-79
2022/03/21 09:02:03;;;;;;;99.68;51.15;;;;;;;8.18;100.00;100231.88;5095930;28;20418;-79
2022/03/21 09:04:29;;;;;;;93.07;50.38;;;;;;;8.20;100.00;100206.38;5096591;28;20465;-77
2022/03/21 09:06:56;;;;;;;90.30;50.55;;;;;;;8.42;100.00;100216.38;5095847;28;20477;-81
2022/03/21 09:09:22;;;;;;;89.97;51.25;;;;;;;8.46;100.00;100216.91;5094738;28;20034;-78
2022/03/21 09:11:47;;;;;;;89.07;50.72;;;;;;;8.61;100.00;100219.03;5099436;28;20032;-78
2022/03/21 09:14:14;;;;;;;86.65;46.72;;;;;;;8.69;100.00;100226.91;5094206;28;20050;-78
2022/03/21 09:16:42;;;;;;;85.78;47.22;;;;;;;8.76;100.00;100227.13;5099485;28;20039;-79
2022/03/21 09:19:09;;;;;;;81.63;46.42;;;;;;;8.79;100.00;100232.06;5097379;28;20371;-80
2022/03/21 09:21:35;;;;;;;81.03;44.60;;;;;;;8.85;100.00;100216.56;5101399;28;20454;-80
2022/03/21 09:24:00;;;;;;;73.07;42.63;;;;;;;8.99;100.00;100225.63;5095825;28;20039;-79
2022/03/21 09:26:26;;;;;;;67.55;40.25;;;;;;;9.13;100.00;100226.06;5098857;28;20454;-80
2022/03/21 09:28:59;;;;;;;74.22;39.88;;;;;;;9.25;100.00;100226.59;5095854;28;20074;-78
2022/03/21 09:31:27;;;;;;;71.32;41.58;;;;;;;9.39;100.00;100219.94;5102385;28;20442;-79
2022/03/21 09:33:53;;;;;;;71.70;41.55;;;;;;;9.51;100.00;100215.25;5097000;28;20091;-79
2022/03/21 09:36:19;;;;;;;66.78;39.28;;;;;;;9.50;100.00;100221.47;5101009;28;20023;-78
2022/03/21 09:38:45;;;;;;;68.20;40.45;;;;;;;9.62;100.00;100217.59;5099181;28;20042;-79
2022/03/21 09:41:14;;;;;;;66.15;35.35;;;;;;;9.76;100.00;100217.97;5098497;28;20028;-79
2022/03/21 09:43:40;;;;;;;69.13;35.50;;;;;;;9.96;100.00;100216.69;5100901;28;20032;-79
2022/03/21 09:46:10;;;;;;;53.80;31.95;;;;;;;10.19;100.00;100209.97;5095959;28;20032;-78
2022/03/21 09:48:35;;;;;;;57.05;33.08;;;;;;;10.19;100.00;100218.69;5092064;28;20062;-79
2022/03/21 09:51:03;;;;;;;57.03;32.78;;;;;;;10.13;99.65;100209.66;5100980;28;20127;-79
2022/03/21 09:53:30;;;;;;;55.38;33.45;;;;;;;10.25;97.42;100211.97;5102383;28;20076;-79
2022/03/21 09:55:57;;;;;;;52.95;32.22;;;;;;;10.20;97.82;100209.00;5096424;28;20114;-78
2022/03/21 09:58:23;;;;;;;55.45;32.33;;;;;;;10.21;97.07;100210.63;5097871;28;20093;-78
2022/03/21 10:00:49;;;;;;;53.60;33.42;;;;;;;10.48;93.89;100201.66;5094931;28;20028;-81
2022/03/21 10:03:16;;;;;;;44.75;29.73;;;;;;;10.61;93.72;100210.84;5081193;28;20028;-79
2022/03/21 10:05:44;;;;;;;53.47;32.70;;;;;;;10.70;90.73;100220.34;5097864;28;20338;-81
2022/03/21 10:08:24;;;;;;;54.85;31.23;;;;;;;10.68;88.45;100212.63;5093765;28;20043;-78
2022/03/21 10:10:57;;;;;;;49.35;32.63;;;;;;;10.63;86.96;100214.94;5094178;28;20025;-80
2022/03/21 10:13:26;;;;;;;54.80;32.83;;;;;;;10.69;87.29;100198.53;5093354;28;20036;-79
2022/03/21 10:16:07;;;;;;;52.60;34.55;;;;;;;10.78;87.30;100206.38;5096668;28;20064;-79
2022/03/21 10:18:32;;;;;;;51.97;34.75;;;;;;;10.82;88.89;100216.38;5093955;28;20054;-80
2022/03/21 10:21:13;;;;;;;52.60;34.78;;;;;;;10.95;89.66;100221.13;5100325;28;20027;-80
2022/03/21 10:23:39;;;;;;;56.75;34.47;;;;;;;11.00;88.60;100212.75;5099381;28;20377;-80
2022/03/21 10:26:33;;;;;;;58.50;35.33;;;;;;;11.03;88.16;100212.41;5095044;28;20055;-80
2022/03/21 10:29:00;;;;;;;56.35;35.58;;;;;;;10.96;90.60;100198.31;5104486;28;20415;-80
2022/03/21 10:31:52;;;;;;;54.72;34.38;;;;;;;11.02;86.09;100208.13;5096684;28;20036;-81
2022/03/21 10:34:21;;;;;;;50.58;32.70;;;;;;;11.20;86.46;100199.22;5094155;28;20036;-79
2022/03/21 10:37:14;;;;;;;53.72;34.03;;;;;;;11.26;85.31;100207.25;5095097;28;20118;-80
2022/03/21 10:39:50;;;;;;;50.70;32.40;;;;;;;11.44;84.62;100203.56;5096465;28;20051;-79
2022/03/21 10:42:17;;;;;;;49.10;33.08;;;;;;;11.32;84.11;100199.66;5093373;28;20077;-81
2022/03/21 10:44:53;;;;;;;47.00;32.47;;;;;;;11.46;84.02;100206.84;5079968;28;20028;-81
2022/03/21 10:47:19;;;;;;;47.45;32.28;;;;;;;11.66;83.06;100203.78;5099329;28;20115;-80
2022/03/21 10:49:45;;;;;;;50.65;32.92;;;;;;;11.71;81.92;100211.97;5105556;28;20401;-80
2022/03/21 10:52:18;;;;;;;51.55;34.25;;;;;;;11.95;80.30;100210.19;5102581;28;20082;-80
2022/03/21 10:54:50;;;;;;;50.80;33.03;;;;;;;12.06;81.40;100201.91;5099783;28;20450;-80
2022/03/21 10:57:25;;;;;;;46.88;30.65;;;;;;;12.42;82.00;100203.13;5094827;28;20062;-81
2022/03/21 10:59:51;;;;;;;54.10;32.97;;;;;;;12.50;80.12;100189.91;5097904;28;20460;-80
2022/03/21 11:02:17;;;;;;;49.30;33.30;;;;;;;12.56;78.98;100191.81;5095189;28;20042;-79
2022/03/21 11:04:44;;;;;;;43.17;31.65;;;;;;;12.71;76.82;100193.66;5093165;28;20478;-79
2022/03/21 11:07:13;;;;;;;45.42;31.63;;;;;;;12.75;78.25;100197.56;5091571;28;20035;-80
2022/03/21 11:09:41;;;;;;;44.15;32.42;;;;;;;12.74;75.14;100188.03;5097964;28;20111;-81
2022/03/21 11:12:10;;;;;;;53.45;32.72;;;;;;;12.86;75.33;100197.09;5093730;28;20034;-80
2022/03/21 11:14:39;;;;;;;48.85;32.85;;;;;;;12.85;74.69;100199.94;5100359;28;20051;-80
2022/03/21 11:17:07;;;;;;;44.13;32.17;;;;;;;12.91;76.40;100191.28;5103184;28;20031;-80
2022/03/21 11:19:34;;;;;;;43.85;31.00;;;;;;;12.97;74.21;100206.41;5097631;28;20024;-81
2022/03/21 11:22:01;;;;;;;44.85;32.08;;;;;;;13.03;73.58;100204.03;5104766;28;20035;-80
2022/03/21 11:24:31;;;;;;;45.08;33.03;;;;;;;13.12;75.45;100213.47;5098279;28;20276;-81
2022/03/21 11:27:10;;;;;;;45.83;32.28;;;;;;;13.25;76.53;100205.75;5099966;28;20389;-80
2022/03/21 11:29:52;;;;;;;48.85;31.60;;;;;;;13.32;71.38;100207.63;5098640;28;20505;-80
2022/03/21 11:32:37;;;;;;;44.42;32.20;;;;;;;13.41;71.22;100201.28;5098580;28;20036;-79